Portland Hillsboro Airport
KHIO : now visible

Airfield :











YOU CAN JOIN US ON...

 
LOGIN :

Register | Disclaimer

   EN    FR    IT 

 









Legend :    VFR   Marginal VFR   IFR   Intensive IFR   Very Intensive IFR
Visi :
Ceiling :
>= 8 km
>= 3000ft
5 to 8 km
1000 to 3000 ft
1500m to 5 km
500 to 1000 ft
800 to 1500m
200 to 500 ft
< 800m
< 200 ft
Symbols :   Thunderstorms  Fog  Heavy snow  Heavy precipitations  Wind > 20 kt







- Airport Elevation : 208 ft


KHIO - Portland Hillsboro

CURRENT METAR :
  • 211653Z 00000KT 10SM OVC025 14/13 A3016 RMK AO2 SLP211 T01440128

EXPIRED METARs :
  • 211553Z 00000KT 10SM FEW004 FEW008 OVC026 12/12 A3016 RMK AO2 SLP213 T01220122
  • 211519Z 00000KT 3SM BR SCT004 OVC029 12/11 A3016 RMK AO2 T01170111
  • 211507Z 00000KT 1 1/2SM BR FEW002 OVC029 11/11 A3016 RMK AO2 T01110111
  • 211453Z 00000KT 3/4SM R13R/2400VP6000FT BR VV002 11/11 A3016 RMK AO2 SLP211 T01060106 55001

TAF KHIO
Valid from the 21 at 18:00 until the 22 at 18:00 UTC


211725Z 2118/2218 VRB02KT P6SM SCT009 BKN025
FM212000 35002KT P6SM BKN045 BKN150
FM220000 VRB03KT P6SM SCT045 SCT150
FM221100 17005KT 5SM -RA BR SCT007 OVC015
No reported NOTAMs for that airfield.



MET'MAP, your aeronautical weather chart ! - Copyright ORBIFLY December 2007 - Disclaimer

ORBIFLY MET'MAP TEAM :

Programming & Development : Alexandra Zaïnal
Concept & Development : Baudouin d'Aumeries
Co-Development & Prog : Marc-Olivier Méhu
Technical & hardware support : Manuel Goepfert

Contact : metmap@orbifly.com




SOURCES & CREDITS :

   NOAA       Earth
Advisory